Главная страница
METAR-TAF:

METAR-TAF

Аэропорты :

Трентон, Онтарио, Канада

широта: 44-07N, долгота: 077-32W, высота над уровнем моря: 85 м

Текущие метеонаблюдения

Эта сводка был подготовлена 1 час и 5 минут назад, в 09:00 UTC
Ветер 3 Узел от северный
Температура -6°C
Влажность 68%
Давление 1026 hPa
Видимость: 24.1 км
ясное небо

METAR: CYTR 260900Z 35003KT 15SM SKC M06/M11 A3029 RMK SLP264

Время: 06:05 (10:05 UTC)

Прогноз

Эта сводка был подготовлена 4 часа и 35 минут назад, в 05:30 UTC
Прогноз действительный с 26-го 06 UTC до 27-го 06 UTC
Ветер 8 Узел от северо-западный
Видимость: 10 км
ясное небо
изменения
С 26-го 17 UTC до 26-го 19 UTC
Ветер 12 Узел от южный-юго-западный
изменения
С 26-го 23 UTC до 27-го 01 UTC
Ветер 3 Узел переменных направлений

TAF: CYTR 260530Z 2606/2706 32008KT P6SM SKC BECMG 2617/2619 21012KT BECMG 2623/2701 VRB03KT RMK NXT FCST BY 261200Z

Метеонаблюдения и прогнозы для более 4000 аэропортов (сводки METAR и TAF).

Имеющиеся станции представлены на карте желтыми и красными точками.

Чтобы увидеть название станции, наведите на нее мышь.

Затем щелкните, чтобы увидеть метеонаблюдения и метеопрогнозы.

Управление картой: чтобы увеличить масштаб, щелкните зеленые кнопки с черным крестиком; чтобы уменьшить масштаб, щелкните зеленую кнопку с тире; для просмотра соседних карт щелкайте зеленые стрелки.


METAR-TAF: